Time;durP1;ratioP1;P1;durP2;ratioP2;P2;SDS_P1;SDS_P2;PMS_P1;PMS_P2;Temp;Humidity;BMP_temperature;BMP_pressure;BME280_temperature;BME280_humidity;BME280_pressure;Samples;Min_cycle;Max_cycle;Signal;HPM_P1;HPM_P2
2021/04/19 00:01:52;;;;;;;;;;;;;;;9.51;100.00;99325.06;4898817;29;19919;-91
2021/04/19 00:04:17;;;;;;;;;;;;;;;9.47;100.00;99320.88;4896325;29;19923;-91
2021/04/19 00:06:42;;;;;;;;;;;;;;;9.80;100.00;99320.97;4886510;29;19930;-90
2021/04/19 00:09:08;;;;;;;;;;;;;;;9.89;100.00;99327.63;4887386;29;19927;-89
2021/04/19 00:11:34;;;;;;;;;;;;;;;9.92;100.00;99328.41;4880853;29;20330;-91
2021/04/19 00:13:59;;;;;;;;;;;;;;;9.91;100.00;99329.28;4887768;29;20038;-90
2021/04/19 00:16:24;;;;;;;;;;;;;;;9.81;100.00;99315.78;4888086;29;20103;-91
2021/04/19 00:18:50;;;;;;;;;;;;;;;9.74;100.00;99323.66;4883119;29;19935;-90
2021/04/19 00:21:15;;;;;;;;;;;;;;;9.90;100.00;99325.03;4888311;29;20277;-90
2021/04/19 00:23:40;;;;;;;;;;;;;;;10.00;100.00;99321.34;4888382;29;19934;-90
2021/04/19 00:26:06;;;;;;;;;;;;;;;10.02;100.00;99324.72;4889719;29;19986;-91
2021/04/19 00:28:31;;;;;;;;;;;;;;;10.09;100.00;99324.56;4899031;29;19923;-91
2021/04/19 00:30:56;;;;;;;;;;;;;;;10.10;100.00;99327.09;4894806;29;19933;-89
2021/04/19 00:33:22;;;;;;;;;;;;;;;10.14;100.00;99333.00;4883282;29;19919;-91
2021/04/19 00:35:47;;;;;;;;;;;;;;;10.10;100.00;99333.97;4893324;29;20014;-90
2021/04/19 00:38:12;;;;;;;;;;;;;;;10.09;100.00;99329.72;4884880;29;20019;-90
2021/04/19 00:40:39;;;;;;;;;;;;;;;10.13;100.00;99333.91;4892889;29;19950;-91
2021/04/19 00:43:04;;;;;;;;;;;;;;;10.15;100.00;99329.53;4875489;29;19931;-89
2021/04/19 00:45:29;;;;;;;;;;;;;;;10.13;100.00;99336.50;4891867;29;19938;-91
2021/04/19 00:47:55;;;;;;;;;;;;;;;10.09;100.00;99335.69;4892481;29;19966;-89
2021/04/19 00:50:22;;;;;;;;;;;;;;;10.16;100.00;99326.09;4887782;29;20038;-90
2021/04/19 00:52:47;;;;;;;;;;;;;;;10.16;100.00;99332.09;4888782;29;20476;-91
2021/04/19 00:55:14;;;;;;;;;;;;;;;9.75;100.00;99340.81;4892253;29;19923;-91
2021/04/19 00:57:40;;;;;;;;;;;;;;;9.98;100.00;99335.97;4879807;29;19923;-92
2021/04/19 01:00:16;;;;;;;;;;;;;;;10.05;100.00;99337.50;4891565;29;19923;-91
2021/04/19 01:02:42;;;;;;;;;;;;;;;9.96;100.00;99336.88;4881293;29;19927;-91
2021/04/19 01:05:11;;;;;;;;;;;;;;;9.82;100.00;99338.06;4893060;29;20300;-90
2021/04/19 01:07:37;;;;;;;;;;;;;;;9.51;100.00;99347.34;4890468;29;19923;-90
2021/04/19 01:10:02;;;;;;;;;;;;;;;9.61;100.00;99346.28;4894349;29;19923;-90
2021/04/19 01:12:28;;;;;;;;;;;;;;;9.51;100.00;99343.06;4892784;29;19934;-90
2021/04/19 01:14:53;;;;;;;;;;;;;;;9.66;100.00;99347.00;4881738;29;20852;-90
2021/04/19 01:17:18;;;;;;;;;;;;;;;9.30;100.00;99351.22;4891596;29;19930;-92
2021/04/19 01:19:44;;;;;;;;;;;;;;;9.50;100.00;99343.94;4892700;29;19930;-91
2021/04/19 01:22:09;;;;;;;;;;;;;;;9.44;100.00;99344.06;4884736;29;19934;-92
2021/04/19 01:24:34;;;;;;;;;;;;;;;9.26;100.00;99344.44;4894840;29;19992;-91
2021/04/19 01:27:00;;;;;;;;;;;;;;;9.39;100.00;99351.03;4886819;29;19931;-92
2021/04/19 01:29:25;;;;;;;;;;;;;;;9.54;100.00;99348.13;4903502;29;20002;-90
2021/04/19 01:31:50;;;;;;;;;;;;;;;9.27;100.00;99354.72;4887376;29;19934;-91
2021/04/19 01:34:16;;;;;;;;;;;;;;;8.90;100.00;99349.50;4881697;29;19970;-91
2021/04/19 01:36:41;;;;;;;;;;;;;;;8.60;100.00;99346.63;4882255;29;19931;-92
2021/04/19 01:39:06;;;;;;;;;;;;;;;8.88;100.00;99351.22;4890654;29;19924;-92
2021/04/19 01:41:32;;;;;;;;;;;;;;;8.42;100.00;99352.09;4894772;29;19923;-92
2021/04/19 01:43:57;;;;;;;;;;;;;;;8.36;100.00;99353.00;4881033;29;19927;-92
2021/04/19 01:46:22;;;;;;;;;;;;;;;8.67;100.00;99358.47;4879370;29;20021;-91
2021/04/19 01:48:48;;;;;;;;;;;;;;;9.21;100.00;99355.69;4891087;29;19985;-91
2021/04/19 01:51:13;;;;;;;;;;;;;;;9.12;100.00;99355.88;4893588;29;19994;-91
2021/04/19 01:53:38;;;;;;;;;;;;;;;9.11;100.00;99354.19;4888048;29;20270;-91
2021/04/19 01:56:04;;;;;;;;;;;;;;;8.94;100.00;99351.09;4891701;29;19939;-92
2021/04/19 01:58:30;;;;;;;;;;;;;;;9.15;100.00;99345.53;4882181;29;19923;-90
2021/04/19 02:00:56;;;;;;;;;;;;;;;9.07;100.00;99349.13;4892499;29;19931;-90
2021/04/19 02:03:28;;;;;;;;;;;;;;;9.26;100.00;99347.03;4892564;29;19926;-91
2021/04/19 02:05:57;;;;;;;;;;;;;;;9.40;100.00;99350.16;4891881;29;19928;-90
2021/04/19 02:08:42;;;;;;;;;;;;;;;9.61;100.00;99344.53;4887446;29;19931;-91
2021/04/19 02:11:13;;;;;;;;;;;;;;;9.10;100.00;99347.38;4891972;29;19986;-91
2021/04/19 02:13:39;;;;;;;;;;;;;;;9.32;100.00;99341.75;4893173;29;19995;-91
2021/04/19 02:16:33;;;;;;;;;;;;;;;8.54;100.00;99344.16;4888494;29;20054;-91
2021/04/19 02:19:02;;;;;;;;;;;;;;;8.57;100.00;99341.53;4878769;29;20006;-91
2021/04/19 02:21:42;;;;;;;;;;;;;;;8.88;100.00;99338.38;4886824;29;19923;-92
2021/04/19 02:24:09;;;;;;;;;;;;;;;8.69;100.00;99341.31;4893928;29;19967;-90
2021/04/19 02:26:35;;;;;;;;;;;;;;;8.73;100.00;99340.34;4890754;29;19931;-91
2021/04/19 02:29:03;;;;;;;;;;;;;;;8.26;100.00;99342.06;4890576;29;19919;-91
2021/04/19 02:31:29;;;;;;;;;;;;;;;8.35;100.00;99341.88;4890208;29;19927;-91
2021/04/19 02:33:54;;;;;;;;;;;;;;;8.49;100.00;99341.69;4879875;29;19927;-91
2021/04/19 02:36:20;;;;;;;;;;;;;;;8.44;100.00;99340.91;4889240;29;20491;-90
2021/04/19 02:38:49;;;;;;;;;;;;;;;8.64;100.00;99337.13;4889830;29;20395;-90
2021/04/19 02:41:15;;;;;;;;;;;;;;;8.57;100.00;99331.25;4880583;29;20018;-90
2021/04/19 02:43:40;;;;;;;;;;;;;;;8.40;100.00;99325.56;4890572;29;20022;-90
2021/04/19 02:46:07;;;;;;;;;;;;;;;8.75;100.00;99328.34;4880630;29;19980;-91
2021/04/19 02:48:33;;;;;;;;;;;;;;;9.06;100.00;99334.63;4892127;29;20445;-90
2021/04/19 02:51:00;;;;;;;;;;;;;;;8.75;100.00;99328.34;4880460;29;19927;-90
2021/04/19 02:53:25;;;;;;;;;;;;;;;8.90;100.00;99328.94;4886145;29;19923;-90
2021/04/19 02:55:50;;;;;;;;;;;;;;;9.19;100.00;99320.59;4880979;29;19934;-92
2021/04/19 02:58:29;;;;;;;;;;;;;;;8.93;100.00;99324.56;4890584;29;19927;-91
2021/04/19 03:00:54;;;;;;;;;;;;;;;9.31;100.00;99322.94;4891540;29;19938;-91
2021/04/19 03:03:23;;;;;;;;;;;;;;;8.94;100.00;99318.56;4878689;29;20132;-92
2021/04/19 03:05:49;;;;;;;;;;;;;;;8.66;100.00;99323.38;4873580;29;19934;-90
2021/04/19 03:08:16;;;;;;;;;;;;;;;8.66;100.00;99320.81;4890203;29;19927;-91
2021/04/19 03:10:42;;;;;;;;;;;;;;;8.82;100.00;99320.53;4891523;29;20009;-91
2021/04/19 03:13:08;;;;;;;;;;;;;;;9.47;100.00;99317.47;4892933;29;20021;-91
2021/04/19 03:15:38;;;;;;;;;;;;;;;9.57;100.00;99314.63;4892028;29;19986;-91
2021/04/19 03:18:03;;;;;;;;;;;;;;;9.26;100.00;99316.19;4893952;29;20401;-92
2021/04/19 03:20:30;;;;;;;;;;;;;;;9.10;100.00;99311.41;4890274;29;20644;-90
2021/04/19 03:22:55;;;;;;;;;;;;;;;8.96;100.00;99318.53;4880928;29;19968;-91
2021/04/19 03:25:22;;;;;;;;;;;;;;;8.81;100.00;99303.44;4876620;29;19919;-91
2021/04/19 03:27:50;;;;;;;;;;;;;;;8.80;100.00;99312.84;4891290;29;20367;-91
2021/04/19 03:30:16;;;;;;;;;;;;;;;8.64;100.00;99309.72;4875491;29;19930;-91
2021/04/19 03:32:43;;;;;;;;;;;;;;;8.85;100.00;99312.75;4877404;29;19923;-90
2021/04/19 03:35:12;;;;;;;;;;;;;;;9.14;100.00;99315.56;4878061;29;19945;-92
2021/04/19 03:37:38;;;;;;;;;;;;;;;9.41;100.00;99310.72;4902772;29;19927;-91
2021/04/19 03:40:07;;;;;;;;;;;;;;;9.59;100.00;99307.72;4906398;29;19931;-93
2021/04/19 03:42:33;;;;;;;;;;;;;;;9.66;100.00;99311.00;4922711;29;20636;-91
2021/04/19 03:44:59;;;;;;;;;;;;;;;9.62;100.00;99317.09;4900993;29;19934;-93
2021/04/19 03:47:24;;;;;;;;;;;;;;;9.71;100.00;99308.31;4906704;29;20629;-93
2021/04/19 03:49:51;;;;;;;;;;;;;;;9.70;100.00;99311.78;4896466;29;19928;-93
2021/04/19 03:52:18;;;;;;;;;;;;;;;9.60;100.00;99308.56;4910114;29;20011;-93
2021/04/19 03:54:44;;;;;;;;;;;;;;;9.37;100.00;99306.53;4898705;29;19950;-93
2021/04/19 03:57:11;;;;;;;;;;;;;;;9.50;100.00;99310.50;4900580;29;19923;-92
2021/04/19 03:59:37;;;;;;;;;;;;;;;9.16;100.00;99306.09;4890253;29;19978;-89
2021/04/19 04:02:03;;;;;;;;;;;;;;;8.89;100.00;99306.69;4874443;29;19924;-87
2021/04/19 04:04:28;;;;;;;;;;;;;;;8.89;100.00;99306.69;4888738;29;20385;-86
2021/04/19 04:06:53;;;;;;;;;;;;;;;8.91;100.00;99310.06;4882604;29;19927;-86
2021/04/19 04:09:19;;;;;;;;;;;;;;;8.71;100.00;99313.91;4888432;29;20176;-86
2021/04/19 04:11:45;;;;;;;;;;;;;;;8.37;100.00;99314.50;4888694;29;19927;-87
2021/04/19 04:14:10;;;;;;;;;;;;;;;8.55;100.00;99312.47;4889374;29;19923;-86
2021/04/19 04:16:39;;;;;;;;;;;;;;;8.35;100.00;99313.66;4889248;29;20038;-86
2021/04/19 04:19:04;;;;;;;;;;;;;;;8.48;100.00;99321.16;4882523;29;20038;-87
2021/04/19 04:21:30;;;;;;;;;;;;;;;9.03;100.00;99320.09;4888934;29;19978;-87
2021/04/19 04:23:55;;;;;;;;;;;;;;;9.36;100.00;99315.13;4888471;29;20027;-86
2021/04/19 04:26:20;;;;;;;;;;;;;;;9.26;100.00;99321.31;4888520;29;19967;-88
2021/04/19 04:28:45;;;;;;;;;;;;;;;8.85;100.00;99320.47;4873308;29;20031;-87
2021/04/19 04:31:11;;;;;;;;;;;;;;;9.08;100.00;99315.72;4879063;29;19985;-86
2021/04/19 04:33:36;;;;;;;;;;;;;;;9.25;100.00;99319.66;4880102;29;19923;-87
2021/04/19 04:36:01;;;;;;;;;;;;;;;9.34;100.00;99317.72;4880642;29;19977;-87
2021/04/19 04:38:27;;;;;;;;;;;;;;;8.95;100.00;99327.94;4887687;29;19923;-87
2021/04/19 04:40:52;;;;;;;;;;;;;;;9.09;100.00;99327.66;4889069;29;20269;-87
2021/04/19 04:43:22;;;;;;;;;;;;;;;8.88;100.00;99325.56;4889086;29;20363;-86
2021/04/19 04:45:47;;;;;;;;;;;;;;;8.44;100.00;99324.66;4878099;29;19923;-87
2021/04/19 04:48:23;;;;;;;;;;;;;;;8.72;100.00;99328.41;4878613;29;19924;-88
2021/04/19 04:50:49;;;;;;;;;;;;;;;8.72;100.00;99325.84;4879523;29;19997;-87
2021/04/19 04:53:18;;;;;;;;;;;;;;;8.51;100.00;99326.25;4887927;29;20491;-87
2021/04/19 04:55:43;;;;;;;;;;;;;;;8.24;100.00;99333.53;4878229;29;19930;-87
2021/04/19 04:58:09;;;;;;;;;;;;;;;8.53;100.00;99332.19;4888094;29;20688;-86
2021/04/19 05:00:35;;;;;;;;;;;;;;;9.12;100.00;99326.75;4887592;29;20112;-87
2021/04/19 05:03:00;;;;;;;;;;;;;;;8.85;100.00;99329.03;4887693;29;20073;-88
2021/04/19 05:05:25;;;;;;;;;;;;;;;8.83;100.00;99324.81;4878438;29;19924;-87
2021/04/19 05:07:51;;;;;;;;;;;;;;;8.40;100.00;99328.13;4878864;29;19923;-87
2021/04/19 05:10:16;;;;;;;;;;;;;;;8.89;100.00;99327.22;4878469;29;19987;-85
2021/04/19 05:12:42;;;;;;;;;;;;;;;9.15;100.00;99334.41;4879383;29;19923;-88
2021/04/19 05:15:10;;;;;;;;;;;;;;;9.10;100.00;99334.50;4877586;29;20055;-87
2021/04/19 05:17:36;;;;;;;;;;;;;;;8.96;100.00;99333.94;4877179;29;19924;-87
2021/04/19 05:20:03;;;;;;;;;;;;;;;8.69;100.00;99330.19;4886382;29;19923;-87
2021/04/19 05:22:28;;;;;;;;;;;;;;;9.19;100.00;99330.88;4880253;29;19931;-86
2021/04/19 05:24:53;;;;;;;;;;;;;;;8.87;100.00;99334.13;4863409;29;20315;-86
2021/04/19 05:27:19;;;;;;;;;;;;;;;8.97;100.00;99338.22;4872948;29;19915;-87
2021/04/19 05:29:44;;;;;;;;;;;;;;;9.27;100.00;99339.28;4877379;29;20065;-87
2021/04/19 05:32:10;;;;;;;;;;;;;;;9.33;100.00;99343.47;4878600;29;19927;-87
2021/04/19 05:34:36;;;;;;;;;;;;;;;8.83;100.00;99342.78;4881028;29;19924;-87
2021/04/19 05:37:04;;;;;;;;;;;;;;;9.10;100.00;99342.22;4879435;29;19931;-91
2021/04/19 05:39:31;;;;;;;;;;;;;;;9.58;100.00;99343.78;4889885;29;19920;-89
2021/04/19 05:41:57;;;;;;;;;;;;;;;9.11;100.00;99349.03;4879020;29;19924;-86
2021/04/19 05:44:25;;;;;;;;;;;;;;;9.37;100.00;99350.22;4886610;29;19950;-87
2021/04/19 05:46:50;;;;;;;;;;;;;;;9.15;100.00;99349.84;4885699;29;19965;-88
2021/04/19 05:49:15;;;;;;;;;;;;;;;9.21;100.00;99357.41;4885485;29;20002;-88
2021/04/19 05:51:41;;;;;;;;;;;;;;;8.98;100.00;99358.72;4888246;29;19959;-89
2021/04/19 05:54:07;;;;;;;;;;;;;;;9.17;100.00;99342.94;4889588;29;19973;-87
2021/04/19 05:56:35;;;;;;;;;;;;;;;9.21;100.00;99353.13;4880943;29;19963;-87
2021/04/19 05:59:13;;;;;;;;;;;;;;;9.47;100.00;99354.28;4898009;29;19919;-91
2021/04/19 06:01:39;;;;;;;;;;;;;;;9.01;100.00;99357.81;4915100;29;19930;-88
2021/04/19 06:04:13;;;;;;;;;;;;;;;9.00;100.00;99350.97;4889854;29;19925;-91
2021/04/19 06:07:07;;;;;;;;;;;;;;;9.49;100.00;99355.09;4880689;29;20036;-92
2021/04/19 06:09:54;;;;;;;;;;;;;;;9.39;100.00;99357.00;4884240;29;19924;-91
2021/04/19 06:12:20;;;;;;;;;;;;;;;9.36;100.00;99358.81;4896110;29;20586;-90
2021/04/19 06:14:46;;;;;;;;;;;;;;;9.40;100.00;99356.16;4896523;29;20023;-90
2021/04/19 06:17:14;;;;;;;;;;;;;;;9.74;100.00;99357.09;4882695;29;19970;-92
2021/04/19 06:19:40;;;;;;;;;;;;;;;10.53;100.00;99350.94;4880846;29;19975;-92
2021/04/19 06:22:06;;;;;;;;;;;;;;;10.85;100.00;99343.16;4897893;29;20026;-92
2021/04/19 06:24:36;;;;;;;;;;;;;;;11.02;100.00;99357.34;4879779;29;20680;-93
2021/04/19 06:27:02;;;;;;;;;;;;;;;10.51;100.00;99363.00;4893092;29;20735;-92
2021/04/19 06:29:30;;;;;;;;;;;;;;;10.50;100.00;99359.59;4881677;29;20005;-91
2021/04/19 06:31:56;;;;;;;;;;;;;;;9.87;100.00;99361.09;4882853;29;20643;-92
2021/04/19 06:34:22;;;;;;;;;;;;;;;10.08;100.00;99361.47;4881029;29;19978;-90
2021/04/19 06:36:48;;;;;;;;;;;;;;;9.79;100.00;99363.00;4895212;29;19920;-92
2021/04/19 06:39:16;;;;;;;;;;;;;;;9.35;100.00;99363.13;4891602;29;19957;-91
2021/04/19 06:41:42;;;;;;;;;;;;;;;9.45;100.00;99361.19;4889404;29;20599;-92
2021/04/19 06:44:08;;;;;;;;;;;;;;;9.57;100.00;99366.06;4882726;29;19924;-92
2021/04/19 06:46:34;;;;;;;;;;;;;;;10.17;100.00;99361.25;4894917;29;20143;-92
2021/04/19 06:48:59;;;;;;;;;;;;;;;10.01;100.00;99364.22;4902337;29;19927;-92
2021/04/19 06:51:25;;;;;;;;;;;;;;;9.78;100.00;99369.03;4887757;29;19924;-91
2021/04/19 06:53:51;;;;;;;;;;;;;;;10.22;100.00;99357.69;4884762;29;19907;-92
2021/04/19 06:56:16;;;;;;;;;;;;;;;10.84;100.00;99354.38;4899628;29;19927;-91
2021/04/19 06:58:42;;;;;;;;;;;;;;;10.89;100.00;99349.09;4885812;29;19930;-92
2021/04/19 07:01:07;;;;;;;;;;;;;;;10.61;100.00;99359.31;4879294;29;19931;-90
2021/04/19 07:03:33;;;;;;;;;;;;;;;10.70;100.00;99359.06;4895330;29;19934;-92
2021/04/19 07:05:58;;;;;;;;;;;;;;;10.70;100.00;99365.94;4884254;29;20419;-91
2021/04/19 07:08:23;;;;;;;;;;;;;;;10.42;100.00;99370.09;4897075;29;19934;-92
2021/04/19 07:10:49;;;;;;;;;;;;;;;10.57;100.00;99368.84;4890958;29;19946;-92
2021/04/19 07:13:15;;;;;;;;;;;;;;;10.95;100.00;99368.69;4904039;29;20467;-91
2021/04/19 07:15:43;;;;;;;;;;;;;;;10.58;100.00;99362.81;4906052;29;19926;-92
2021/04/19 08:33:17;;;;;;;;;;;;;;;14.26;87.49;99364.28;4952536;23;19926;-93
2021/04/19 08:35:43;;;;;;;;;;;;;;;13.04;90.61;99375.84;4947226;29;19965;-92
2021/04/19 08:38:09;;;;;;;;;;;;;;;12.17;91.44;99376.25;4935889;29;19929;-91
2021/04/19 08:40:36;;;;;;;;;;;;;;;12.51;91.97;99374.25;4953063;29;19929;-91
2021/04/19 08:43:03;;;;;;;;;;;;;;;13.52;88.48;99376.69;4947389;29;19926;-93
2021/04/19 08:45:28;;;;;;;;;;;;;;;13.60;84.09;99377.25;4942999;29;19933;-92
2021/04/19 08:47:55;;;;;;;;;;;;;;;13.17;87.68;99379.66;4969604;28;19926;-93
2021/04/19 08:50:26;;;;;;;;;;;;;;;12.85;88.51;99373.06;4972203;28;19907;-91
2021/04/19 08:52:53;;;;;;;;;;;;;;;12.88;86.02;99367.78;4944096;29;19927;-92
2021/04/19 08:55:19;;;;;;;;;;;;;;;13.84;85.62;99359.91;4967098;28;19907;-93
2021/04/19 08:57:45;;;;;;;;;;;;;;;13.45;87.67;99372.66;4954293;28;19930;-93
2021/04/19 09:00:11;;;;;;;;;;;;;;;13.74;86.31;99372.38;4970867;29;20410;-91
2021/04/19 09:02:40;;;;;;;;;;;;;;;13.62;85.42;99375.47;4930204;28;19977;-92
2021/04/19 09:05:14;;;;;;;;;;;;;;;14.59;81.87;99369.81;4963814;29;19919;-92
2021/04/19 09:07:40;;;;;;;;;;;;;;;14.53;79.76;99370.06;4941756;29;19927;-92
2021/04/19 09:10:07;;;;;;;;;;;;;;;14.40;81.41;99369.72;4946169;29;20434;-92
2021/04/19 09:12:32;;;;;;;;;;;;;;;15.16;79.55;99371.69;4943632;29;19906;-92
2021/04/19 09:15:08;;;;;;;;;;;;;;;15.51;76.70;99364.03;4929375;29;19925;-92
2021/04/19 09:24:38;;;;;;;;;;;;;;;;;;;;;
2021/04/19 09:27:09;;;;;;;;;;;;;;;14.99;74.29;99375.88;4924093;28;19922;-92
2021/04/19 09:30:01;;;;;;;;;;;;;;;15.17;66.42;99378.59;4870142;29;19924;-92
2021/04/19 09:32:31;;;;;;;;;;;;;;;15.24;72.04;99377.41;4878821;29;19967;-91
2021/04/19 09:38:38;;;;;;;;;;;;;;;;;;;;;
2021/04/19 09:44:21;;;;;;;;;;;;;;;14.55;72.52;99376.06;4929848;29;19923;-93
2021/04/19 09:56:28;;;;;;;;;;;;;;;;;;;;;
2021/04/19 09:58:42;;;;;;;;;;;;;;;15.70;64.22;99380.47;4932745;28;19926;-92
2021/04/19 10:01:18;;;;;;;;;;;;;;;;;;;;;
2021/04/19 10:03:46;;;;;;;;;;;;;;;17.09;60.83;99362.31;4932942;29;20760;-92
2021/04/19 10:06:12;;;;;;;;;;;;;;;17.10;64.18;99368.34;4905002;29;20009;-93
2021/04/19 10:08:49;;;;;;;;;;;;;;;14.63;70.35;99367.94;4928536;28;19927;-92
2021/04/19 10:11:20;;;;;;;;;;;;;;;15.42;65.19;99366.16;4908569;29;19919;-94
2021/04/19 10:13:45;;;;;;;;;;;;;;;14.50;65.98;99364.16;4918970;29;20230;-91
2021/04/19 10:16:12;;;;;;;;;;;;;;;15.16;69.13;99361.31;4933518;29;20005;-91
2021/04/19 10:18:43;;;;;;;;;;;;;;;14.09;69.96;99372.72;4920247;29;19981;-95
2021/04/19 10:21:31;;;;;;;;;;;;;;;14.36;76.28;99369.91;4947657;28;19986;-94
2021/04/19 10:23:57;;;;;;;;;;;;;;;14.69;80.04;99359.06;4943254;28;19922;-92
2021/04/19 10:26:36;;;;;;;;;;;;;;;14.44;79.34;99360.09;4917687;28;20035;-92
2021/04/19 10:29:08;;;;;;;;;;;;;;;13.59;80.73;99365.22;4914184;28;19930;-92
2021/04/19 10:31:39;;;;;;;;;;;;;;;13.72;79.03;99363.00;4928407;28;19933;-93
2021/04/19 10:34:10;;;;;;;;;;;;;;;13.99;80.03;99361.91;4928857;29;19930;-92
2021/04/19 10:36:44;;;;;;;;;;;;;;;13.25;82.18;99361.31;4927332;29;19933;-91
2021/04/19 10:39:14;;;;;;;;;;;;;;;14.76;83.07;99350.97;4934643;28;19958;-92
2021/04/19 10:41:40;;;;;;;;;;;;;;;14.32;78.14;99352.81;4914673;29;19941;-93
2021/04/19 10:44:06;;;;;;;;;;;;;;;14.15;79.12;99354.34;4929402;28;20029;-92
2021/04/19 10:46:32;;;;;;;;;;;;;;;15.11;79.40;99355.50;4934231;29;20302;-92
2021/04/19 10:48:59;;;;;;;;;;;;;;;14.75;76.95;99356.22;4919996;28;19973;-92
2021/04/19 10:51:43;;;;;;;;;;;;;;;13.95;77.84;99368.09;4911471;28;20692;-92
2021/04/19 10:54:10;;;;;;;;;;;;;;;15.21;80.02;99364.53;4921429;28;19922;-92
2021/04/19 10:56:39;;;;;;;;;;;;;;;14.25;77.48;99364.34;4923793;29;20009;-92
2021/04/19 10:59:08;;;;;;;;;;;;;;;14.41;78.11;99362.78;4917101;28;19919;-91
2021/04/19 11:01:36;;;;;;;;;;;;;;;13.52;76.21;99358.59;4916698;29;19945;-92
2021/04/19 11:04:03;;;;;;;;;;;;;;;14.77;84.14;99357.81;4919978;28;19930;-92
2021/04/19 11:06:28;;;;;;;;;;;;;;;14.60;79.07;99355.97;4910935;29;19923;-92
2021/04/19 11:08:54;;;;;;;;;;;;;;;14.81;75.93;99354.19;4919627;28;20037;-92
2021/04/19 11:11:31;;;;;;;;;;;;;;;13.73;77.17;99362.94;4934370;29;19950;-92
2021/04/19 11:14:06;;;;;;;;;;;;;;;14.54;78.55;99356.22;4922802;29;19926;-93
2021/04/19 11:16:31;;;;;;;;;;;;;;;15.15;74.56;99346.69;4930757;29;20001;-93
2021/04/19 11:18:57;;;;;;;;;;;;;;;15.00;73.79;99351.63;4915682;29;20017;-92
2021/04/19 11:21:29;;;;;;;;;;;;;;;14.28;80.21;99354.72;4918398;29;19962;-92
2021/04/19 11:24:24;;;;;;;;;;;;;;;14.45;76.83;99346.22;4922690;29;19907;-92
2021/04/19 11:26:50;;;;;;;;;;;;;;;15.13;79.22;99349.31;4946664;28;20051;-91
2021/04/19 11:29:33;;;;;;;;;;;;;;;15.26;74.83;99339.25;4923867;29;20017;-93
2021/04/19 11:32:00;;;;;;;;;;;;;;;13.77;75.46;99348.97;4934070;29;19926;-91
2021/04/19 11:34:33;;;;;;;;;;;;;;;14.48;75.17;99343.47;4927331;29;20442;-91
2021/04/19 11:37:00;;;;;;;;;;;;;;;14.81;72.43;99345.56;4928041;29;19922;-92
2021/04/19 11:39:25;;;;;;;;;;;;;;;15.18;75.77;99341.34;4925540;29;20020;-91
2021/04/19 11:41:52;;;;;;;;;;;;;;;13.79;70.54;99341.16;4922465;29;19974;-93
2021/04/19 11:44:20;;;;;;;;;;;;;;;14.55;72.43;99341.50;4916665;29;19927;-92
2021/04/19 11:46:47;;;;;;;;;;;;;;;13.83;69.39;99344.47;4933803;29;19918;-88
2021/04/19 11:49:13;;;;;;;;;;;;;;;14.37;70.37;99337.94;4920437;29;20430;-87
2021/04/19 11:51:38;;;;;;;;;;;;;;;14.46;64.50;99341.88;4920180;28;19993;-88
2021/04/19 11:54:04;;;;;;;;;;;;;;;15.77;69.46;99329.94;4920102;29;19922;-88
2021/04/19 11:56:29;;;;;;;;;;;;;;;15.42;64.42;99337.63;4936457;28;19922;-86
2021/04/19 11:58:55;;;;;;;;;;;;;;;14.74;70.37;99334.63;4920266;28;19961;-86
2021/04/19 12:01:20;;;;;;;;;;;;;;;14.07;63.55;99335.72;4920079;29;20624;-86
2021/04/19 12:03:48;;;;;;;;;;;;;;;14.52;66.33;99337.25;4913798;28;20723;-86
2021/04/19 12:06:13;;;;;;;;;;;;;;;14.72;64.65;99338.19;4904393;29;20615;-86
2021/04/19 12:08:41;;;;;;;;;;;;;;;14.78;71.54;99333.59;4919694;28;19922;-86
2021/04/19 12:11:08;;;;;;;;;;;;;;;13.95;65.99;99341.38;4917894;29;19923;-86
2021/04/19 12:13:33;;;;;;;;;;;;;;;14.57;67.35;99335.38;4920354;28;19922;-85
2021/04/19 12:15:59;;;;;;;;;;;;;;;15.57;66.08;99337.81;4919115;28;20719;-87
2021/04/19 12:18:24;;;;;;;;;;;;;;;15.56;61.47;99336.97;4916223;28;19926;-88
2021/04/19 12:20:50;;;;;;;;;;;;;;;15.62;65.33;99335.84;4919519;28;19927;-87
2021/04/19 12:23:16;;;;;;;;;;;;;;;15.95;60.15;99337.78;4916224;28;20571;-86
2021/04/19 12:25:41;;;;;;;;;;;;;;;14.81;62.94;99337.81;4919747;28;20392;-86
2021/04/19 12:28:07;;;;;;;;;;;;;;;14.42;64.70;99338.59;4917847;28;20712;-87
2021/04/19 12:30:32;;;;;;;;;;;;;;;15.08;65.36;99340.09;4916231;28;19922;-88
2021/04/19 12:32:59;;;;;;;;;;;;;;;15.27;64.23;99346.09;4919304;28;19926;-87
2021/04/19 12:35:25;;;;;;;;;;;;;;;16.84;61.24;99331.53;4917263;28;19922;-86
2021/04/19 12:37:50;;;;;;;;;;;;;;;16.84;56.72;99331.53;4937786;28;19923;-87
2021/04/19 12:40:16;;;;;;;;;;;;;;;15.94;64.59;99336.91;4918363;28;20171;-88
2021/04/19 12:42:41;;;;;;;;;;;;;;;16.10;59.19;99331.81;4921132;29;19923;-85
2021/04/19 12:45:07;;;;;;;;;;;;;;;15.91;56.01;99331.03;4938419;28;20463;-86
2021/04/19 12:47:32;;;;;;;;;;;;;;;17.10;59.96;99319.75;4908667;28;20013;-87
2021/04/19 12:49:58;;;;;;;;;;;;;;;16.05;51.02;99326.00;4920172;28;19929;-87
2021/04/19 12:52:23;;;;;;;;;;;;;;;15.65;51.56;99320.13;4918255;28;19937;-87
2021/04/19 12:54:48;;;;;;;;;;;;;;;16.88;57.29;99314.03;4919051;28;20022;-87
2021/04/19 12:57:14;;;;;;;;;;;;;;;16.08;54.03;99318.91;4920109;29;19969;-88
2021/04/19 12:59:39;;;;;;;;;;;;;;;16.47;55.63;99319.59;4916132;28;19961;-87
2021/04/19 13:02:04;;;;;;;;;;;;;;;17.20;54.05;99314.06;4918267;29;20761;-87
2021/04/19 13:04:30;;;;;;;;;;;;;;;17.86;53.12;99313.88;4903783;28;19927;-87
2021/04/19 13:06:55;;;;;;;;;;;;;;;17.41;52.84;99307.69;4919649;29;19922;-87
2021/04/19 13:09:21;;;;;;;;;;;;;;;17.07;52.36;99306.06;4921282;29;19927;-87
2021/04/19 13:11:47;;;;;;;;;;;;;;;17.18;52.66;99315.91;4916414;29;19919;-87
2021/04/19 13:14:12;;;;;;;;;;;;;;;15.84;51.78;99315.75;4918520;29;20409;-87
2021/04/19 13:16:38;;;;;;;;;;;;;;;16.64;53.25;99311.75;4916138;29;19992;-86
2021/04/19 13:19:03;;;;;;;;;;;;;;;16.95;49.33;99317.97;4919017;29;19922;-87
2021/04/19 13:21:28;;;;;;;;;;;;;;;17.66;47.81;99307.16;4920029;29;20024;-85
2021/04/19 13:23:56;;;;;;;;;;;;;;;17.19;57.77;99302.78;4920389;29;19922;-87
2021/04/19 13:26:21;;;;;;;;;;;;;;;16.69;51.18;99298.50;4920689;29;20016;-87
2021/04/19 13:28:46;;;;;;;;;;;;;;;17.94;52.19;99301.22;4920488;29;19981;-87
2021/04/19 13:31:12;;;;;;;;;;;;;;;17.43;49.11;99308.44;4917924;29;19922;-87
2021/04/19 13:33:37;;;;;;;;;;;;;;;17.96;55.23;99299.38;4912195;28;19930;-87
2021/04/19 13:36:02;;;;;;;;;;;;;;;17.46;49.21;99299.59;4919466;29;20405;-87
2021/04/19 13:38:28;;;;;;;;;;;;;;;17.96;56.31;99296.78;4919788;28;19923;-87
2021/04/19 13:40:53;;;;;;;;;;;;;;;16.93;54.55;99299.00;4916474;29;19985;-87
2021/04/19 13:43:19;;;;;;;;;;;;;;;16.91;50.41;99304.28;4914308;28;20021;-87
2021/04/19 13:45:44;;;;;;;;;;;;;;;16.05;53.59;99297.44;4919386;29;20034;-87
2021/04/19 13:48:10;;;;;;;;;;;;;;;16.18;52.64;99298.50;4919484;28;19918;-87
2021/04/19 13:50:35;;;;;;;;;;;;;;;16.32;59.13;99295.19;4919270;28;19977;-87
2021/04/19 13:53:01;;;;;;;;;;;;;;;15.82;54.97;99291.59;4919409;29;19981;-88
2021/04/19 13:55:26;;;;;;;;;;;;;;;16.39;52.56;99306.13;4915733;28;19978;-88
2021/04/19 13:57:52;;;;;;;;;;;;;;;15.45;51.84;99298.53;4919664;29;19922;-88
2021/04/19 14:00:18;;;;;;;;;;;;;;;17.46;53.66;99297.84;4916105;28;20033;-88
2021/04/19 14:02:44;;;;;;;;;;;;;;;16.96;50.49;99296.22;4919924;29;19934;-87
2021/04/19 14:05:10;;;;;;;;;;;;;;;17.46;51.16;99289.19;4916649;28;19922;-87
2021/04/19 14:07:36;;;;;;;;;;;;;;;16.98;54.05;99294.38;4918872;28;20203;-87
2021/04/19 14:10:03;;;;;;;;;;;;;;;16.44;57.53;99291.13;4919160;29;20287;-87
2021/04/19 14:12:28;;;;;;;;;;;;;;;16.32;56.07;99300.41;4935363;28;20053;-87
2021/04/19 14:14:54;;;;;;;;;;;;;;;15.09;56.75;99295.06;4919272;29;20409;-87
2021/04/19 14:17:19;;;;;;;;;;;;;;;15.73;55.67;99292.06;4918718;28;19945;-87
2021/04/19 14:19:45;;;;;;;;;;;;;;;15.31;54.70;99295.75;4917156;29;19922;-87
2021/04/19 14:22:10;;;;;;;;;;;;;;;16.65;61.92;99282.22;4917074;28;19993;-87
2021/04/19 14:24:36;;;;;;;;;;;;;;;17.98;53.29;99279.28;4919041;29;19922;-87
2021/04/19 14:27:02;;;;;;;;;;;;;;;17.37;53.27;99281.91;4918107;28;20331;-87
2021/04/19 14:29:27;;;;;;;;;;;;;;;17.60;50.00;99276.22;4919289;29;19922;-87